Time;durP1;ratioP1;P1;durP2;ratioP2;P2;SDS_P1;SDS_P2;PMS_P1;PMS_P2;Temp;Humidity;BMP_temperature;BMP_pressure;BME280_temperature;BME280_humidity;BME280_pressure;Samples;Min_cycle;Max_cycle;Signal;HPM_P1;HPM_P2
2023/05/09 00:01:39;;;;;;;6.13;4.00;;;;;;;9.60;64.07;101129.75;5104724;28;20062;-61
2023/05/09 00:04:05;;;;;;;6.63;3.95;;;;;;;9.58;63.96;101130.81;5090242;28;20551;-61
2023/05/09 00:06:31;;;;;;;6.10;4.25;;;;;;;9.58;64.20;101137.03;5090092;28;20027;-61
2023/05/09 00:08:57;;;;;;;6.55;4.20;;;;;;;9.58;63.90;101126.34;5089872;28;20031;-61
2023/05/09 00:11:22;;;;;;;5.68;3.97;;;;;;;9.58;64.17;101138.84;5110138;28;20028;-61
2023/05/09 00:13:49;;;;;;;5.47;3.90;;;;;;;9.54;64.18;101127.50;5093467;28;20043;-61
2023/05/09 00:16:15;;;;;;;5.50;4.00;;;;;;;9.50;64.53;101128.69;5110213;28;20027;-61
2023/05/09 00:18:41;;;;;;;6.28;3.70;;;;;;;9.46;64.52;101119.16;5109858;28;20035;-61
2023/05/09 00:21:08;;;;;;;6.28;4.05;;;;;;;9.26;64.83;101088.41;5092500;28;20384;-61
2023/05/09 00:23:34;;;;;;;6.32;4.30;;;;;;;9.32;64.91;101111.22;5107732;28;20039;-62
2023/05/09 00:26:00;;;;;;;7.38;5.00;;;;;;;9.22;65.01;101091.41;5111015;28;20035;-62
2023/05/09 00:28:26;;;;;;;6.20;4.28;;;;;;;9.14;65.46;101088.44;5110300;28;20492;-61
2023/05/09 00:30:52;;;;;;;6.55;4.20;;;;;;;9.33;65.09;101126.34;5110585;28;20038;-61
2023/05/09 00:33:18;;;;;;;8.38;4.35;;;;;;;9.25;65.67;101117.97;5110548;28;20096;-61
2023/05/09 00:35:44;;;;;;;9.52;4.78;;;;;;;9.28;65.61;101123.09;5110641;28;20045;-61
2023/05/09 00:38:09;;;;;;;5.90;3.95;;;;;;;9.25;65.71;101121.50;5110458;28;20476;-61
2023/05/09 00:40:35;;;;;;;7.65;4.75;;;;;;;9.27;65.65;101122.28;5110428;28;20028;-62
2023/05/09 00:43:00;;;;;;;6.63;4.90;;;;;;;9.20;65.88;101109.41;5110520;28;20104;-61
2023/05/09 00:45:26;;;;;;;7.75;5.18;;;;;;;9.12;65.51;101099.25;5110410;28;20080;-61
2023/05/09 00:47:51;;;;;;;6.50;4.53;;;;;;;9.26;65.79;101122.38;5110217;28;20042;-62
2023/05/09 00:50:17;;;;;;;7.50;4.30;;;;;;;9.27;66.13;101126.75;5110204;28;20112;-61
2023/05/09 00:52:43;;;;;;;7.78;4.75;;;;;;;9.24;65.80;101116.25;5091727;28;20020;-62
2023/05/09 00:55:09;;;;;;;9.93;4.90;;;;;;;9.25;66.11;101117.97;5092384;28;20487;-61
2023/05/09 00:57:35;;;;;;;8.10;4.55;;;;;;;9.25;65.98;101113.47;5109717;28;20027;-61
2023/05/09 01:00:01;;;;;;;10.85;5.25;;;;;;;9.24;65.99;101119.81;5110575;28;20439;-61
2023/05/09 01:02:29;;;;;;;8.15;5.22;;;;;;;9.14;65.66;101108.03;5109978;28;20027;-62
2023/05/09 01:04:54;;;;;;;7.70;4.47;;;;;;;9.08;66.09;101103.09;5110134;28;20043;-62
2023/05/09 01:07:36;;;;;;;8.90;5.57;;;;;;;9.19;66.06;101121.06;5109962;28;20019;-62
2023/05/09 01:10:20;;;;;;;8.05;4.78;;;;;;;9.18;66.42;101111.34;5110497;28;20042;-61
2023/05/09 01:12:58;;;;;;;8.00;5.30;;;;;;;9.11;66.20;101112.72;5092954;28;20211;-61
2023/05/09 01:15:40;;;;;;;8.95;5.43;;;;;;;9.07;66.48;101117.41;5109935;28;20031;-61
2023/05/09 01:18:23;;;;;;;10.00;5.43;;;;;;;9.07;66.98;101124.59;5110031;28;20035;-62
2023/05/09 01:21:19;;;;;;;9.80;5.38;;;;;;;9.02;66.63;101127.59;5108843;28;20117;-62
2023/05/09 01:24:07;;;;;;;10.77;5.80;;;;;;;8.98;67.62;101123.44;5109612;28;20052;-62
2023/05/09 01:26:54;;;;;;;10.13;4.90;;;;;;;8.99;67.36;101114.44;5109772;28;20034;-61
2023/05/09 01:29:43;;;;;;;8.13;5.35;;;;;;;9.01;67.08;101119.69;5101602;28;20064;-61
2023/05/09 01:32:14;;;;;;;8.82;5.47;;;;;;;8.86;67.76;101105.53;5109690;28;20102;-62
2023/05/09 01:34:46;;;;;;;8.57;6.03;;;;;;;8.88;68.00;101114.31;5109135;28;20031;-62
2023/05/09 01:37:18;;;;;;;9.02;5.60;;;;;;;8.86;67.60;101104.66;5101619;28;20034;-61
2023/05/09 01:39:52;;;;;;;6.97;5.47;;;;;;;8.68;68.14;101068.50;5109533;28;20115;-61
2023/05/09 01:42:20;;;;;;;8.55;5.00;;;;;;;8.78;68.30;101096.31;5109438;28;20031;-62
2023/05/09 01:44:46;;;;;;;11.30;5.88;;;;;;;8.80;68.43;101103.25;5109080;28;20080;-61
2023/05/09 01:47:15;;;;;;;8.18;5.65;;;;;;;8.76;68.29;101099.09;5109367;28;20042;-61
2023/05/09 01:49:41;;;;;;;9.95;6.22;;;;;;;8.71;68.50;101084.31;5108972;28;20487;-60
2023/05/09 01:52:11;;;;;;;10.45;5.97;;;;;;;8.60;68.83;101068.13;5109053;28;20488;-60
2023/05/09 01:54:39;;;;;;;7.68;5.63;;;;;;;8.58;69.24;101070.91;5108835;28;20034;-61
2023/05/09 01:57:07;;;;;;;11.13;6.55;;;;;;;8.55;69.01;101068.44;5109006;28;20433;-60
2023/05/09 01:59:33;;;;;;;10.10;5.97;;;;;;;8.59;68.88;101075.31;5109387;28;20476;-60
2023/05/09 02:02:00;;;;;;;9.52;6.45;;;;;;;8.68;69.02;101103.25;5109041;28;20031;-60
2023/05/09 02:04:27;;;;;;;12.77;6.65;;;;;;;8.62;69.05;101087.63;5108880;28;20068;-60
2023/05/09 02:06:53;;;;;;;7.55;5.55;;;;;;;8.61;69.50;101089.41;5109414;28;20027;-60
2023/05/09 02:09:19;;;;;;;11.90;6.78;;;;;;;8.66;69.31;101091.78;5109134;28;20030;-61
2023/05/09 02:11:45;;;;;;;8.65;5.90;;;;;;;8.62;69.15;101084.94;5108638;28;20023;-60
2023/05/09 02:14:12;;;;;;;9.68;6.00;;;;;;;8.59;69.07;101086.00;5108517;28;20019;-61
2023/05/09 02:16:38;;;;;;;9.00;5.97;;;;;;;8.50;70.07;101077.75;5108527;28;20084;-60
2023/05/09 02:19:04;;;;;;;11.13;6.80;;;;;;;8.52;69.87;101081.19;5108743;28;20117;-60
2023/05/09 02:21:30;;;;;;;9.45;6.35;;;;;;;8.51;70.39;101091.00;5108755;28;20042;-60
2023/05/09 02:23:56;;;;;;;8.73;6.00;;;;;;;8.51;69.93;101077.63;5108065;28;20411;-60
2023/05/09 02:26:23;;;;;;;10.85;7.15;;;;;;;8.53;70.08;101083.75;5108367;28;20031;-60
2023/05/09 02:28:49;;;;;;;9.27;6.53;;;;;;;8.53;69.80;101072.19;5108977;28;20390;-60
2023/05/09 02:31:19;;;;;;;14.90;6.55;;;;;;;8.48;69.92;101066.31;5108581;28;20161;-60
2023/05/09 02:33:46;;;;;;;10.18;6.90;;;;;;;8.46;69.66;101065.56;5108644;28;20067;-60
2023/05/09 02:36:14;;;;;;;11.48;7.25;;;;;;;8.50;70.55;101080.41;5090265;28;20027;-61
2023/05/09 02:38:40;;;;;;;12.55;7.50;;;;;;;8.44;70.30;101081.69;5092968;28;20114;-60
2023/05/09 02:41:06;;;;;;;13.35;6.78;;;;;;;8.45;70.43;101085.22;5094230;28;20542;-60
2023/05/09 02:43:32;;;;;;;13.40;8.02;;;;;;;8.34;70.79;101059.22;5107885;28;20031;-62
2023/05/09 02:45:57;;;;;;;11.57;7.28;;;;;;;8.48;70.83;101069.81;5108426;28;20039;-61
2023/05/09 02:48:23;;;;;;;9.65;6.65;;;;;;;8.43;70.74;101073.78;5108655;28;20074;-60
2023/05/09 02:50:48;;;;;;;10.38;6.88;;;;;;;8.33;70.83;101059.31;5108709;28;20039;-61
2023/05/09 02:53:14;;;;;;;12.15;7.07;;;;;;;8.20;71.08;101040.53;5108326;28;20027;-61
2023/05/09 02:55:39;;;;;;;10.32;7.10;;;;;;;8.29;71.01;101055.13;5108608;28;20028;-61
2023/05/09 02:58:05;;;;;;;10.82;6.82;;;;;;;8.40;70.60;101077.50;5107810;28;21793;-61
2023/05/09 03:00:30;;;;;;;9.95;6.78;;;;;;;8.39;71.35;101072.28;5100359;28;20377;-60
2023/05/09 03:02:56;;;;;;;10.40;7.43;;;;;;;8.37;71.32;101068.84;5107650;28;20035;-61
2023/05/09 03:05:21;;;;;;;9.70;6.68;;;;;;;8.24;71.24;101051.91;5107516;28;20040;-61
2023/05/09 03:07:47;;;;;;;13.00;7.35;;;;;;;8.25;71.07;101050.94;5107377;28;20092;-61
2023/05/09 03:10:13;;;;;;;10.55;7.13;;;;;;;8.25;71.41;101065.16;5107247;28;20080;-61
2023/05/09 03:12:38;;;;;;;9.73;6.78;;;;;;;8.22;71.81;101054.66;5088938;28;20373;-61
2023/05/09 03:15:05;;;;;;;12.10;7.43;;;;;;;8.35;71.42;101076.13;5107138;28;20020;-61
2023/05/09 03:17:31;;;;;;;13.23;7.18;;;;;;;8.16;71.66;101049.69;5107245;28;20024;-60
2023/05/09 03:19:56;;;;;;;12.63;8.07;;;;;;;8.28;72.42;101072.97;5107270;28;20027;-61
2023/05/09 03:22:22;;;;;;;13.10;6.75;;;;;;;8.27;72.15;101076.63;5107190;28;20115;-61
2023/05/09 03:24:47;;;;;;;9.88;6.47;;;;;;;8.27;72.46;101073.06;5107703;28;20039;-60
2023/05/09 03:27:13;;;;;;;11.60;7.07;;;;;;;8.24;72.43;101065.25;5107647;28;20023;-61
2023/05/09 03:29:38;;;;;;;11.30;7.75;;;;;;;8.26;72.39;101069.53;5108030;28;20046;-61
2023/05/09 03:32:04;;;;;;;11.15;7.60;;;;;;;8.25;72.46;101075.84;5107994;28;20555;-61
2023/05/09 03:34:29;;;;;;;11.63;7.13;;;;;;;8.26;71.83;101072.22;5107547;28;20487;-61
2023/05/09 03:36:55;;;;;;;10.35;6.80;;;;;;;8.28;72.46;101074.78;5112235;28;20027;-60
2023/05/09 03:39:20;;;;;;;13.40;7.50;;;;;;;8.26;73.07;101072.22;5112065;28;20027;-60
2023/05/09 03:41:46;;;;;;;11.48;7.20;;;;;;;8.26;72.49;101074.03;5112218;28;20023;-60
2023/05/09 03:44:11;;;;;;;14.43;6.88;;;;;;;8.22;73.01;101070.72;5093558;28;20027;-60
2023/05/09 03:46:37;;;;;;;11.93;7.72;;;;;;;8.24;73.20;101074.16;5111559;28;20447;-60
2023/05/09 03:49:03;;;;;;;11.25;7.45;;;;;;;8.20;72.93;101066.41;5111009;28;20476;-61
2023/05/09 03:51:29;;;;;;;12.40;7.10;;;;;;;8.21;73.25;101074.31;5110729;28;20063;-61
2023/05/09 03:53:55;;;;;;;11.55;7.40;;;;;;;8.18;73.24;101068.31;5110840;28;20523;-61
2023/05/09 03:56:21;;;;;;;10.65;7.43;;;;;;;8.28;72.93;101080.13;5100686;28;20103;-61
2023/05/09 03:58:47;;;;;;;13.70;7.70;;;;;;;8.27;73.27;101078.41;5111002;28;20388;-62
2023/05/09 04:01:13;;;;;;;15.23;8.07;;;;;;;8.29;73.71;101074.69;5111400;28;20030;-62
2023/05/09 04:03:39;;;;;;;16.73;7.85;;;;;;;8.33;73.43;101075.34;5104005;28;20083;-62
2023/05/09 04:06:05;;;;;;;14.18;7.70;;;;;;;8.44;73.18;101075.47;5111813;28;20454;-61
2023/05/09 04:08:31;;;;;;;10.27;6.18;;;;;;;8.54;72.69;101084.59;5111301;28;20020;-61
2023/05/09 04:10:56;;;;;;;12.27;7.45;;;;;;;8.61;73.08;101083.25;5111566;28;20387;-62
2023/05/09 04:13:22;;;;;;;14.85;7.63;;;;;;;8.72;72.77;101088.72;5111221;28;20019;-61
2023/05/09 04:15:47;;;;;;;14.32;6.18;;;;;;;8.84;72.07;101087.88;5093118;28;20032;-61
2023/05/09 04:18:13;;;;;;;10.43;6.78;;;;;;;8.90;71.62;101079.44;5112013;28;20034;-62
2023/05/09 04:20:38;;;;;;;10.40;6.97;;;;;;;8.92;71.04;101072.16;5111091;28;20050;-61
2023/05/09 04:23:04;;;;;;;10.07;6.70;;;;;;;9.05;70.43;101078.34;5111365;27;20050;-62
2023/05/09 04:25:30;;;;;;;10.57;6.78;;;;;;;9.09;70.22;101063.78;5109792;28;20110;-61
2023/05/09 04:27:56;;;;;;;11.55;5.85;;;;;;;9.37;70.18;101082.31;5109084;28;20119;-61
2023/05/09 04:30:25;;;;;;;11.85;7.00;;;;;;;9.27;68.75;101025.03;5110894;28;20676;-61
2023/05/09 04:32:52;;;;;;;14.65;7.30;;;;;;;9.66;68.72;101081.09;5104857;28;20181;-61
2023/05/09 04:35:18;;;;;;;10.27;6.97;;;;;;;9.77;67.84;101073.13;5109699;28;20472;-62
2023/05/09 04:37:43;;;;;;;11.13;6.75;;;;;;;9.93;67.26;101072.88;5111270;28;20030;-61
2023/05/09 04:40:09;;;;;;;10.35;6.65;;;;;;;9.96;67.05;101059.28;5097506;28;20023;-61
2023/05/09 04:42:35;;;;;;;12.82;7.22;;;;;;;10.22;66.65;101080.50;5110543;28;20488;-61
2023/05/09 04:45:00;;;;;;;9.30;5.70;;;;;;;10.39;65.88;101076.59;5092810;28;20023;-62
2023/05/09 04:47:26;;;;;;;8.65;5.65;;;;;;;10.52;65.25;101074.69;5109487;28;20639;-62
2023/05/09 04:49:52;;;;;;;10.05;6.65;;;;;;;10.66;64.92;101086.09;5110757;28;20051;-61
2023/05/09 04:52:17;;;;;;;12.18;6.35;;;;;;;10.78;64.04;101069.06;5105415;28;20412;-61
2023/05/09 04:54:43;;;;;;;10.18;5.55;;;;;;;10.96;63.30;101083.72;5110733;28;20038;-62
2023/05/09 04:57:08;;;;;;;11.65;6.55;;;;;;;11.05;62.53;101072.28;5110591;28;20489;-62
2023/05/09 04:59:34;;;;;;;8.63;5.65;;;;;;;11.26;62.03;101077.81;5110585;28;20567;-62
2023/05/09 05:02:00;;;;;;;11.93;5.53;;;;;;;11.30;61.82;101072.09;5092349;28;20014;-62
2023/05/09 05:04:25;;;;;;;11.70;5.85;;;;;;;11.36;61.49;101068.88;5110515;28;20031;-62
2023/05/09 05:06:51;;;;;;;9.35;5.68;;;;;;;11.51;61.57;101066.81;5110777;28;20031;-61
2023/05/09 05:09:16;;;;;;;7.47;5.25;;;;;;;11.62;61.09;101071.38;5110473;28;20072;-61
2023/05/09 05:11:41;;;;;;;9.88;5.50;;;;;;;11.87;60.52;101076.47;5107621;28;20084;-61
2023/05/09 05:14:07;;;;;;;8.27;5.53;;;;;;;11.97;59.47;101066.69;5092331;28;20030;-61
2023/05/09 05:16:32;;;;;;;9.85;5.70;;;;;;;12.01;59.65;101044.81;5106601;28;20046;-61
2023/05/09 05:18:58;;;;;;;10.05;5.13;;;;;;;12.17;59.37;101045.25;5106585;28;20486;-61
2023/05/09 05:21:23;;;;;;;10.57;5.90;;;;;;;12.33;58.94;101063.66;5110451;28;20027;-61
2023/05/09 05:23:48;;;;;;;12.45;4.88;;;;;;;12.40;58.58;101056.78;5109900;28;20048;-62
2023/05/09 05:26:14;;;;;;;14.77;5.22;;;;;;;12.56;58.05;101060.75;5109779;28;20027;-61
2023/05/09 05:28:39;;;;;;;7.65;5.07;;;;;;;12.63;57.95;101059.25;5110032;28;20038;-61
2023/05/09 05:31:05;;;;;;;8.95;5.20;;;;;;;12.63;58.15;101069.13;5109183;28;20034;-62
2023/05/09 05:33:30;;;;;;;10.18;4.18;;;;;;;12.49;58.00;101050.63;5109206;28;20038;-61
2023/05/09 05:35:56;;;;;;;8.57;4.88;;;;;;;12.56;57.49;101067.97;5109487;28;20031;-61
2023/05/09 05:38:21;;;;;;;8.80;4.38;;;;;;;12.54;57.45;101070.78;5109779;28;20034;-61
2023/05/09 05:40:47;;;;;;;6.20;4.43;;;;;;;12.69;57.61;101076.69;5109685;28;20027;-61
2023/05/09 05:43:12;;;;;;;10.63;4.30;;;;;;;12.75;57.45;101073.50;5091558;28;20484;-61
2023/05/09 05:45:37;;;;;;;8.82;4.45;;;;;;;12.79;56.51;101074.94;5109673;28;20075;-61
2023/05/09 05:48:03;;;;;;;11.50;4.63;;;;;;;12.90;56.83;101074.91;5108129;28;20032;-61
2023/05/09 05:50:29;;;;;;;9.05;4.55;;;;;;;13.01;56.91;101088.31;5109624;28;20028;-61
2023/05/09 05:52:54;;;;;;;9.18;4.50;;;;;;;13.04;57.10;101080.84;5109683;28;20060;-61
2023/05/09 05:55:20;;;;;;;8.63;4.32;;;;;;;13.16;56.62;101085.16;5109297;28;20034;-61
2023/05/09 05:57:46;;;;;;;8.38;4.18;;;;;;;13.16;56.25;101071.69;5088415;28;20035;-61
2023/05/09 06:00:13;;;;;;;10.63;4.53;;;;;;;13.39;55.53;101078.63;5083601;28;20028;-61
2023/05/09 06:02:42;;;;;;;8.80;4.47;;;;;;;13.46;55.37;101076.25;5107264;28;20057;-61
2023/05/09 06:05:09;;;;;;;6.22;3.80;;;;;;;13.64;54.68;101083.56;5089023;28;20483;-61
2023/05/09 06:07:34;;;;;;;5.57;3.92;;;;;;;13.72;54.90;101082.88;5109415;28;20038;-61
2023/05/09 06:09:59;;;;;;;7.07;3.80;;;;;;;13.77;54.72;101091.44;5108202;28;20035;-61
2023/05/09 06:12:25;;;;;;;7.80;3.95;;;;;;;13.87;54.37;101076.16;5108677;28;20016;-61
2023/05/09 06:14:50;;;;;;;5.78;3.67;;;;;;;13.90;54.67;101070.47;5108901;28;20028;-61
2023/05/09 06:17:16;;;;;;;7.65;4.05;;;;;;;13.99;54.01;101091.19;5108644;28;20651;-61
2023/05/09 06:19:42;;;;;;;5.88;3.80;;;;;;;14.08;54.28;101094.91;5090343;28;20050;-62
2023/05/09 06:22:07;;;;;;;9.15;4.45;;;;;;;14.15;54.22;101088.84;5108481;28;20106;-61
2023/05/09 06:24:32;;;;;;;7.18;4.00;;;;;;;14.33;53.84;101086.34;5108548;28;20035;-62
2023/05/09 06:26:58;;;;;;;4.93;3.88;;;;;;;14.25;53.65;101060.06;5108454;28;20036;-61
2023/05/09 06:29:23;;;;;;;4.97;3.83;;;;;;;14.40;54.24;101072.16;5108649;28;20100;-61
2023/05/09 06:31:49;;;;;;;4.72;3.45;;;;;;;14.46;53.79;101060.81;5108656;28;20092;-62
2023/05/09 06:34:14;;;;;;;4.80;3.70;;;;;;;14.57;53.28;101076.84;5108789;28;20031;-62
2023/05/09 06:36:40;;;;;;;4.57;3.25;;;;;;;14.70;53.06;101063.09;5108449;28;20027;-61
2023/05/09 06:39:06;;;;;;;5.63;3.90;;;;;;;14.78;53.33;101060.50;5108524;28;20054;-61
2023/05/09 06:41:31;;;;;;;6.20;3.28;;;;;;;14.87;53.17;101062.34;5108300;28;20054;-61
2023/05/09 06:43:57;;;;;;;4.30;3.30;;;;;;;14.98;52.81;101064.88;5108430;28;20031;-61
2023/05/09 06:46:23;;;;;;;4.82;3.70;;;;;;;15.05;52.83;101066.88;5108281;28;20015;-62
2023/05/09 06:48:48;;;;;;;5.78;3.53;;;;;;;15.22;52.84;101059.88;5108320;28;20498;-61
2023/05/09 06:51:14;;;;;;;5.40;3.35;;;;;;;15.33;52.63;101067.78;5108562;28;20031;-61
2023/05/09 06:53:39;;;;;;;5.82;3.22;;;;;;;15.35;51.91;101061.22;5108334;28;20023;-62
2023/05/09 06:56:05;;;;;;;5.32;3.47;;;;;;;15.38;51.58;101027.69;5108354;28;20024;-61
2023/05/09 06:58:30;;;;;;;4.68;2.75;;;;;;;15.62;51.39;101042.41;5090012;28;20475;-62
2023/05/09 07:00:56;;;;;;;6.30;3.20;;;;;;;15.74;51.36;101057.41;5104383;28;21373;-61
2023/05/09 07:03:21;;;;;;;5.15;2.78;;;;;;;15.77;50.83;101042.75;5107784;28;20034;-61
2023/05/09 07:05:47;;;;;;;6.60;3.33;;;;;;;15.81;51.78;101047.69;5108022;28;20035;-61
2023/05/09 07:08:12;;;;;;;4.88;2.53;;;;;;;15.98;51.13;101047.88;5108424;28;20150;-61
2023/05/09 07:10:38;;;;;;;3.50;2.50;;;;;;;16.07;50.45;101041.56;5099799;28;20059;-61
2023/05/09 07:13:04;;;;;;;5.40;2.72;;;;;;;16.21;50.04;101050.00;5105432;28;20027;-61
2023/05/09 07:15:29;;;;;;;5.22;2.25;;;;;;;16.36;49.29;101051.22;5108044;28;20468;-61
2023/05/09 07:17:55;;;;;;;6.07;2.88;;;;;;;16.49;49.07;101049.00;5107521;28;20138;-61
2023/05/09 07:20:20;;;;;;;4.60;2.63;;;;;;;16.58;48.90;101037.25;5107746;28;20034;-62
2023/05/09 07:22:46;;;;;;;3.40;2.50;;;;;;;16.67;49.00;101032.75;5107130;28;20046;-61
2023/05/09 07:25:11;;;;;;;5.53;2.33;;;;;;;16.78;48.61;101044.19;5089477;28;20031;-67
2023/05/09 07:27:37;;;;;;;3.38;2.20;;;;;;;16.80;48.44;101025.06;5107346;28;20035;-67
2023/05/09 07:30:07;;;;;;;4.90;2.28;;;;;;;16.91;48.33;101031.06;5107680;28;20020;-67
2023/05/09 07:32:33;;;;;;;3.25;2.35;;;;;;;16.93;48.28;101031.75;5107280;28;20035;-68
2023/05/09 07:34:59;;;;;;;3.97;2.78;;;;;;;16.87;48.59;101007.16;5107608;28;20036;-69
2023/05/09 07:37:24;;;;;;;4.13;2.55;;;;;;;16.99;47.97;101020.28;5107362;28;20102;-67
2023/05/09 07:39:50;;;;;;;4.93;2.13;;;;;;;17.06;48.07;101036.78;5093491;28;20089;-67
2023/05/09 07:42:16;;;;;;;5.32;2.42;;;;;;;17.06;48.19;101026.75;5107856;28;20032;-67
2023/05/09 07:44:41;;;;;;;5.05;2.90;;;;;;;17.10;48.78;101028.19;5107546;28;20024;-67
2023/05/09 07:47:07;;;;;;;4.72;2.88;;;;;;;17.11;48.50;101013.59;5107708;28;20395;-67
2023/05/09 07:49:33;;;;;;;4.18;2.80;;;;;;;17.11;48.68;101012.75;5107275;28;20028;-68
2023/05/09 07:51:59;;;;;;;5.80;2.75;;;;;;;17.19;48.67;101021.78;5107536;28;20138;-67
2023/05/09 07:54:25;;;;;;;5.32;2.65;;;;;;;17.20;48.97;101018.06;5107111;28;20034;-68
2023/05/09 07:56:50;;;;;;;3.50;2.25;;;;;;;17.20;49.05;101001.81;5106899;28;20388;-68
2023/05/09 07:59:16;;;;;;;7.30;2.58;;;;;;;17.42;48.84;101011.25;5107377;28;20023;-68
2023/05/09 08:01:41;;;;;;;5.85;2.55;;;;;;;17.47;48.18;101009.78;5087612;28;20706;-67
2023/05/09 08:04:08;;;;;;;3.50;2.47;;;;;;;17.45;48.78;101009.06;5107072;28;20043;-68
2023/05/09 08:06:34;;;;;;;3.40;2.55;;;;;;;17.53;48.34;101003.69;5107867;28;20091;-67
2023/05/09 08:09:00;;;;;;;5.32;2.45;;;;;;;17.47;48.41;100985.34;5107569;28;20030;-67
2023/05/09 08:11:25;;;;;;;4.70;2.72;;;;;;;17.50;49.12;100998.59;5107031;28;20392;-67
2023/05/09 08:13:50;;;;;;;4.57;2.72;;;;;;;17.55;49.20;101009.81;5107584;28;20042;-68
2023/05/09 08:16:16;;;;;;;7.68;2.83;;;;;;;17.52;49.12;100996.59;5108265;28;20031;-67
2023/05/09 08:18:42;;;;;;;4.90;2.70;;;;;;;17.48;49.05;100983.50;5107622;28;20036;-67
2023/05/09 08:21:08;;;;;;;4.57;2.90;;;;;;;17.54;49.95;100999.97;5109615;28;20356;-67
2023/05/09 08:23:33;;;;;;;3.08;2.60;;;;;;;17.63;49.34;100998.13;5111008;28;20059;-68
2023/05/09 08:25:59;;;;;;;8.55;2.55;;;;;;;17.66;50.05;100992.38;5111154;28;20031;-67
2023/05/09 08:28:27;;;;;;;3.47;2.90;;;;;;;17.71;49.80;100990.88;5111540;28;20034;-67
2023/05/09 08:30:56;;;;;;;6.78;3.08;;;;;;;17.70;49.36;100989.19;5109944;28;20204;-68
2023/05/09 08:33:22;;;;;;;6.43;2.78;;;;;;;17.69;50.00;100992.91;5097761;28;20032;-67
2023/05/09 08:35:52;;;;;;;4.35;2.58;;;;;;;17.74;49.60;100990.53;5111472;28;20128;-67
2023/05/09 08:38:18;;;;;;;7.85;3.08;;;;;;;17.63;49.99;100990.84;5111328;28;20118;-67
2023/05/09 08:40:44;;;;;;;5.05;2.67;;;;;;;17.68;49.84;100998.50;5110989;28;20149;-67
2023/05/09 08:43:11;;;;;;;5.07;2.58;;;;;;;17.67;50.50;100994.09;5110954;28;20055;-67
2023/05/09 08:45:49;;;;;;;4.10;2.72;;;;;;;17.84;49.65;101002.09;5110968;28;20027;-67
2023/05/09 08:48:15;;;;;;;3.35;2.38;;;;;;;17.70;49.96;100967.47;5109619;28;20020;-67
2023/05/09 08:50:42;;;;;;;6.97;3.33;;;;;;;17.85;50.46;100995.69;5110697;28;20035;-67
2023/05/09 08:53:07;;;;;;;6.05;2.83;;;;;;;17.76;50.77;101003.94;5111029;28;20016;-67
2023/05/09 08:55:34;;;;;;;6.30;2.60;;;;;;;17.77;51.02;100997.53;5111137;28;20027;-67
2023/05/09 08:57:59;;;;;;;6.93;2.22;;;;;;;17.82;50.26;100987.88;5110994;28;20472;-67
2023/05/09 09:00:26;;;;;;;4.20;2.50;;;;;;;17.66;50.88;100967.97;5101003;28;20039;-67
2023/05/09 09:02:54;;;;;;;4.90;2.85;;;;;;;17.75;51.43;100983.25;5110762;28;20490;-67
2023/05/09 09:05:22;;;;;;;2.92;2.20;;;;;;;17.90;50.97;100981.63;5110697;28;20032;-67
2023/05/09 09:07:48;;;;;;;5.03;2.75;;;;;;;17.94;51.05;100981.13;5110581;28;20027;-67
2023/05/09 09:10:14;;;;;;;3.75;2.47;;;;;;;18.00;50.35;100974.19;5110383;28;20031;-67
2023/05/09 09:12:41;;;;;;;7.57;2.30;;;;;;;18.05;51.44;100978.09;5109844;28;20395;-67
2023/05/09 09:15:13;;;;;;;5.10;2.20;;;;;;;18.12;50.92;100980.16;5110522;28;20466;-67
2023/05/09 09:17:41;;;;;;;8.65;2.75;;;;;;;18.06;50.89;100962.66;5110379;28;20379;-67
2023/05/09 09:20:10;;;;;;;3.75;2.30;;;;;;;18.19;50.89;100971.19;5110560;28;20031;-67
2023/05/09 09:22:39;;;;;;;2.40;2.10;;;;;;;18.13;50.82;100946.53;5109958;28;20484;-67
2023/05/09 09:25:05;;;;;;;6.53;2.58;;;;;;;18.19;50.17;100943.16;5111051;28;20080;-67
2023/05/09 09:27:31;;;;;;;4.78;2.50;;;;;;;18.35;50.36;100956.75;5110304;28;20023;-67
2023/05/09 09:30:05;;;;;;;5.13;2.28;;;;;;;18.41;50.54;100966.97;5101084;28;20043;-67
2023/05/09 09:32:32;;;;;;;4.70;2.25;;;;;;;18.36;50.68;100969.31;5109332;28;20031;-67
2023/05/09 09:35:08;;;;;;;3.00;2.05;;;;;;;18.38;50.62;100972.75;5108410;28;20017;-67
2023/05/09 09:37:35;;;;;;;3.92;2.40;;;;;;;18.37;51.09;100966.44;5110251;28;20032;-67
2023/05/09 09:40:01;;;;;;;3.97;2.05;;;;;;;18.35;51.19;100957.63;5109705;27;20039;-67
2023/05/09 09:42:39;;;;;;;3.45;2.20;;;;;;;18.48;51.07;100966.13;5109947;28;20035;-67
2023/05/09 09:45:12;;;;;;;3.63;2.17;;;;;;;18.48;50.67;100963.41;5108736;28;20108;-67
2023/05/09 09:47:39;;;;;;;5.87;2.20;;;;;;;18.56;50.60;100965.25;5109996;28;20072;-68
2023/05/09 09:50:16;;;;;;;3.95;2.10;;;;;;;18.55;51.17;100966.28;5110012;28;20278;-67
2023/05/09 09:52:53;;;;;;;2.72;2.20;;;;;;;18.30;50.75;100942.81;5107544;28;20055;-67
2023/05/09 09:55:20;;;;;;;2.30;1.88;;;;;;;18.44;50.76;100977.50;5102330;28;20059;-67
2023/05/09 09:57:47;;;;;;;3.92;1.92;;;;;;;18.41;50.88;100970.53;5091447;28;20559;-67
2023/05/09 10:00:33;;;;;;;4.30;2.35;;;;;;;18.27;51.19;100960.31;5092340;28;20042;-67
2023/05/09 10:02:59;;;;;;;3.30;2.08;;;;;;;18.22;51.70;100968.13;5109060;28;20037;-67
2023/05/09 10:05:27;;;;;;;5.57;2.00;;;;;;;18.14;51.77;100959.94;5091259;28;20114;-68
2023/05/09 10:08:01;;;;;;;4.05;1.85;;;;;;;18.10;51.81;100967.56;5109944;28;20546;-67
2023/05/09 10:10:28;;;;;;;;;;;;;;;18.07;52.28;100967.06;5109290;28;20042;-67
2023/05/09 10:12:57;;;;;;;3.80;2.22;;;;;;;18.09;51.96;100957.72;5108095;28;19919;-67
2023/05/09 10:15:23;;;;;;;2.15;1.90;;;;;;;17.99;52.61;100953.47;5108102;28;20080;-67
2023/05/09 10:17:54;;;;;;;8.77;2.50;;;;;;;18.00;52.86;100974.19;5107866;28;20039;-67
2023/05/09 10:20:21;;;;;;;2.80;1.90;;;;;;;17.96;52.41;100959.25;5108120;27;20031;-67
2023/05/09 10:22:47;;;;;;;2.58;2.15;;;;;;;17.96;52.03;100962.78;5107360;28;20043;-67
2023/05/09 10:25:21;;;;;;;3.92;1.75;;;;;;;17.87;52.58;100962.97;5108043;28;20115;-67
2023/05/09 10:27:47;;;;;;;;;;;;;;;17.86;52.79;100962.09;5108204;28;20039;-68
2023/05/09 10:30:20;;;;;;;4.25;1.70;;;;;;;17.83;52.87;100950.72;5107785;28;19963;-67
2023/05/09 10:32:57;;;;;;;2.70;1.73;;;;;;;17.81;53.59;100947.34;5107390;28;20107;-68
2023/05/09 10:35:28;;;;;;;3.00;1.80;;;;;;;17.84;53.00;100957.84;5107851;28;20033;-68
2023/05/09 10:37:58;;;;;;;2.47;2.13;;;;;;;17.83;52.83;100961.56;5089276;28;20472;-67
2023/05/09 10:40:24;;;;;;;3.58;1.95;;;;;;;17.82;53.16;100943.59;5107898;28;20055;-68
2023/05/09 10:42:49;;;;;;;3.90;1.70;;;;;;;17.87;52.69;100941.25;5107306;28;20096;-68
2023/05/09 10:45:15;;;;;;;3.25;1.92;;;;;;;17.98;52.65;100952.63;5107818;28;20031;-67
2023/05/09 10:47:42;;;;;;;3.20;1.70;;;;;;;17.88;53.31;100932.94;5107581;28;20102;-67
2023/05/09 10:50:10;;;;;;;3.40;1.88;;;;;;;18.09;52.99;100944.16;5107560;28;20038;-67
2023/05/09 10:53:07;;;;;;;3.83;1.85;;;;;;;18.17;53.34;100945.19;5106288;28;20035;-67
2023/05/09 10:55:51;;;;;;;2.90;1.88;;;;;;;18.25;52.63;100947.91;5107031;28;20492;-68
2023/05/09 10:58:32;;;;;;;1.70;1.60;;;;;;;18.22;52.47;100946.41;5107511;28;20516;-68
2023/05/09 11:00:59;;;;;;;2.47;2.00;;;;;;;18.26;53.13;100947.75;5107253;28;20251;-67
2023/05/09 11:03:26;;;;;;;2.08;1.80;;;;;;;18.35;52.89;100943.16;5107837;28;20511;-67
2023/05/09 11:05:57;;;;;;;3.85;1.80;;;;;;;18.33;52.55;100937.91;5106919;28;20030;-67
2023/05/09 11:08:24;;;;;;;2.08;1.75;;;;;;;18.36;52.13;100953.91;5093415;28;20023;-67
2023/05/09 11:10:52;;;;;;;2.88;2.30;;;;;;;18.40;52.06;100938.97;5108820;28;20027;-67
2023/05/09 11:13:19;;;;;;;2.33;1.70;;;;;;;18.40;52.04;100935.38;5105575;28;20028;-67
2023/05/09 11:15:59;;;;;;;2.95;1.85;;;;;;;18.43;52.48;100938.63;5107404;28;20050;-68
2023/05/09 11:18:25;;;;;;;2.88;1.55;;;;;;;18.51;51.96;100937.78;5107166;28;20480;-67
2023/05/09 11:20:50;;;;;;;4.90;1.92;;;;;;;18.42;52.03;100926.06;5107316;28;20031;-67
2023/05/09 11:23:20;;;;;;;2.90;1.67;;;;;;;18.45;52.35;100931.16;5106845;28;20131;-67
2023/05/09 11:25:47;;;;;;;6.05;1.42;;;;;;;18.45;52.43;100935.72;5086603;28;20100;-67
2023/05/09 11:28:30;;;;;;;2.20;1.70;;;;;;;18.45;52.36;100925.72;5102397;28;20024;-67